This is the latest recevied weather packets stored in our database for station/object KB0RPJ. If no packets are shown the sender has not sent any weather packets the latest 10 day(s).
| Time | Temp. | Humidity | Pressure | Rain* | Wind** | Luminosity | Snow |
|---|---|---|---|---|---|---|---|
| 1777516205 | 11.67° C | 56% | 1018.7 hPa | 0 mm | - | 0 W/m² | - |
| 1777515905 | 11.67° C | 56% | 1018.8 hPa | 0 mm | - | 0 W/m² | - |
| 1777515605 | 12.22° C | 56% | 1018.7 hPa | 0 mm | - | 0 W/m² | - |
| 1777515305 | 12.22° C | 55% | 1018.7 hPa | 0 mm | - | 0 W/m² | - |
| 1777515005 | 12.22° C | 54% | 1018.7 hPa | 0 mm | - | 0 W/m² | - |
| 1777514705 | 12.22° C | 54% | 1018.6 hPa | 0 mm | - | 0 W/m² | - |
| 1777514405 | 12.78° C | 53% | 1018.6 hPa | 0 mm | - | 0 W/m² | - |
| 1777514105 | 12.78° C | 52% | 1018.5 hPa | 0 mm | - | 0 W/m² | - |
| 1777513805 | 12.78° C | 52% | 1018.4 hPa | 0 mm | - | 0 W/m² | - |
| 1777513506 | 12.78° C | 51% | 1018.4 hPa | 0 mm | - | 0 W/m² | - |
| 1777513206 | 12.78° C | 50% | 1018.3 hPa | 0 mm | - | 0 W/m² | - |
| 1777512905 | 13.33° C | 49% | 1018.2 hPa | 0 mm | - | 0 W/m² | - |
| 1777512005 | 13.33° C | 48% | 1018.1 hPa | 0 mm | - | 0 W/m² | - |
| 1777511716 | 13.33° C | 48% | 1018.1 hPa | 0 mm | - | 0 W/m² | - |
| 1777511406 | 13.33° C | 48% | 1018 hPa | 0 mm | - | 0 W/m² | - |
| 1777510805 | 13.89° C | 47% | 1017.9 hPa | 0 mm | - | 8 W/m² | - |
| 1777510506 | 13.89° C | 47% | 1017.9 hPa | 0 mm | - | 12 W/m² | - |
| 1777510207 | 13.89° C | 46% | 1017.8 hPa | 0 mm | - | 16 W/m² | - |
| 1777509304 | 14.44° C | 45% | 1017.7 hPa | 0 mm | - | 28 W/m² | - |
| 1777508705 | 14.44° C | 45% | 1017.5 hPa | 0 mm | - | 36 W/m² | - |
| 1777508405 | 14.44° C | 45% | 1017.5 hPa | 0 mm | - | 38 W/m² | - |
| 1777506605 | 15° C | 44% | 1017.5 hPa | 0 mm | - | 126 W/m² | - |
| 1777496706 | 15.56° C | 46% | 1018.1 hPa | 0 mm | - | 734 W/m² | - |
| 1777496107 | 15.56° C | 48% | 1018.2 hPa | 0 mm | - | 682 W/m² | - |
| 1777491305 | 14.44° C | 50% | 1019.2 hPa | 0 mm | - | 964 W/m² | - |
* Rain latest hour (hover to see other rain measurements)
** Current wind speed in m/s (hover to see current wind gust speed)